createdAt,value
2022-08-26T00:00:54.413Z,98966.34
2022-08-26T00:04:55.886Z,98962.09
2022-08-26T00:08:57.364Z,98958.00
2022-08-26T00:12:59.314Z,98949.72
2022-08-26T00:17:00.988Z,98958.63
2022-08-26T00:21:06.215Z,98956.91
2022-08-26T00:25:09.118Z,98953.44
2022-08-26T00:29:10.647Z,98955.28
2022-08-26T00:33:12.052Z,98959.53
2022-08-26T00:37:16.226Z,98962.38
2022-08-26T00:41:19.710Z,98964.25
2022-08-26T00:45:29.433Z,98960.28
2022-08-26T00:49:44.302Z,98959.50
2022-08-26T00:53:50.574Z,98963.91
2022-08-26T00:58:00.387Z,98966.53
2022-08-26T01:02:03.764Z,98974.47
2022-08-26T01:06:06.598Z,98970.06
2022-08-26T01:10:19.151Z,98970.13
2022-08-26T01:14:22.603Z,98960.94
2022-08-26T01:18:25.533Z,98968.88
2022-08-26T01:22:33.134Z,98968.25
2022-08-26T01:26:41.154Z,98972.22
2022-08-26T01:30:45.382Z,98977.59
2022-08-26T01:34:48.383Z,98974.78
2022-08-26T01:38:49.842Z,98975.63
2022-08-26T01:42:52.378Z,98979.22
2022-08-26T01:46:56.743Z,98975.81
2022-08-26T01:51:06.472Z,98980.34
2022-08-26T01:55:09.157Z,98976.97
2022-08-26T01:59:12.349Z,98980.50
2022-08-26T02:03:23.405Z,98988.72
2022-08-26T02:07:26.794Z,98989.16
2022-08-26T02:11:36.863Z,98982.34
2022-08-26T02:15:43.037Z,98990.06
2022-08-26T02:19:47.853Z,98996.25
2022-08-26T02:23:49.835Z,99001.44
2022-08-26T02:27:52.335Z,98995.31
2022-08-26T02:31:55.609Z,98988.44
2022-08-26T02:35:57.616Z,98990.06
2022-08-26T02:39:59.452Z,98993.84
2022-08-26T02:44:01.196Z,98993.13
2022-08-26T02:48:11.981Z,98994.16
2022-08-26T02:52:13.713Z,98993.59
2022-08-26T02:56:15.449Z,98989.44
2022-08-26T03:00:17.099Z,98993.91
2022-08-26T03:04:25.828Z,98991.34
2022-08-26T03:08:27.600Z,98995.09
2022-08-26T03:12:29.194Z,98984.81
2022-08-26T03:16:39.844Z,98988.38
2022-08-26T03:20:41.855Z,98986.72
2022-08-26T03:24:46.136Z,98986.84
2022-08-26T03:29:06.951Z,98986.78
2022-08-26T03:33:12.010Z,98985.13
2022-08-26T03:37:20.830Z,98984.50
2022-08-26T03:41:22.370Z,98981.94
2022-08-26T03:45:30.505Z,98982.00
2022-08-26T03:49:32.617Z,98976.94
2022-08-26T03:53:34.411Z,98974.47
2022-08-26T03:57:37.622Z,98968.38
2022-08-26T04:01:39.550Z,98964.97
2022-08-26T04:05:41.117Z,98964.13
2022-08-26T04:09:42.702Z,98965.94
2022-08-26T04:13:44.349Z,98968.66
2022-08-26T04:17:45.972Z,98967.19
2022-08-26T04:21:51.022Z,98978.78
2022-08-26T04:25:52.722Z,98980.41
2022-08-26T04:29:55.286Z,98980.56
2022-08-26T04:33:57.154Z,98982.31
2022-08-26T04:37:58.925Z,98978.84
2022-08-26T04:42:00.624Z,98978.00
2022-08-26T04:46:05.420Z,98978.78
2022-08-26T04:50:08.430Z,98978.75
2022-08-26T04:54:13.996Z,98982.06
2022-08-26T04:58:19.546Z,98986.22
2022-08-26T05:02:21.195Z,98991.56
2022-08-26T05:06:22.749Z,98991.47
2022-08-26T05:10:24.734Z,98988.56
2022-08-26T05:14:34.605Z,98999.72
2022-08-26T05:18:37.362Z,98996.00
2022-08-26T05:22:39.215Z,98997.94
2022-08-26T05:26:40.725Z,99011.97
2022-08-26T05:30:43.265Z,99005.03
2022-08-26T05:34:46.082Z,99005.13
2022-08-26T05:38:55.534Z,99003.59
2022-08-26T05:42:56.986Z,99010.38
2022-08-26T05:46:58.488Z,99014.47
2022-08-26T05:51:05.192Z,99015.03
2022-08-26T05:55:07.018Z,99011.25
2022-08-26T05:59:14.421Z,99019.13
2022-08-26T06:03:22.594Z,99010.03
2022-08-26T06:07:52.323Z,99007.13
2022-08-26T06:11:58.598Z,99005.88
2022-08-26T06:16:07.741Z,99008.38
2022-08-26T06:20:16.671Z,99017.19
2022-08-26T06:24:37.602Z,99009.25
2022-08-26T06:28:46.697Z,99006.44
2022-08-26T06:32:49.438Z,99015.97
2022-08-26T06:36:52.251Z,99013.81
2022-08-26T06:41:01.629Z,99011.16
2022-08-26T06:45:04.636Z,99013.34
2022-08-26T06:49:10.451Z,99020.31
2022-08-26T06:53:22.449Z,99021.16
2022-08-26T06:57:23.950Z,99019.91
2022-08-26T07:01:51.931Z,99012.31
2022-08-26T07:06:12.766Z,99013.84
2022-08-26T07:10:15.185Z,99020.59
2022-08-26T07:14:21.550Z,99019.78
2022-08-26T07:18:24.549Z,99030.19
2022-08-26T07:22:26.342Z,99025.88
2022-08-26T07:26:30.255Z,99020.97
2022-08-26T07:30:31.918Z,99032.00
2022-08-26T07:34:40.633Z,99033.91
2022-08-26T07:38:50.790Z,99042.50
2022-08-26T07:42:52.474Z,99031.38
2022-08-26T07:46:54.037Z,99032.28
2022-08-26T07:50:56.061Z,99038.06
2022-08-26T07:55:06.651Z,99041.81
2022-08-26T07:59:13.709Z,99033.44
2022-08-26T08:03:17.285Z,99042.16
2022-08-26T08:07:19.560Z,99042.22
2022-08-26T08:11:29.749Z,99047.75
2022-08-26T08:15:33.256Z,99048.09
2022-08-26T08:19:44.481Z,99056.94
2022-08-26T08:23:46.342Z,99049.88
2022-08-26T08:27:55.601Z,99053.38
2022-08-26T08:32:00.019Z,99050.56
2022-08-26T08:36:09.349Z,99058.53
2022-08-26T08:40:16.410Z,99057.22
2022-08-26T08:44:20.971Z,99058.66
2022-08-26T08:48:33.635Z,99049.41
2022-08-26T08:52:36.648Z,99051.97
2022-08-26T08:56:46.670Z,99051.63
2022-08-26T09:01:04.885Z,99051.03
2022-08-26T09:05:31.508Z,99060.13
2022-08-26T09:09:38.804Z,99059.22
2022-08-26T09:13:45.096Z,99056.69
2022-08-26T09:18:10.782Z,99057.31
2022-08-26T09:22:35.060Z,99060.63
2022-08-26T09:26:39.613Z,99065.44
2022-08-26T09:30:41.303Z,99065.19
2022-08-26T09:35:35.994Z,99058.13
2022-08-26T09:39:39.161Z,99061.16
2022-08-26T09:43:40.645Z,99056.53
2022-08-26T09:47:45.791Z,99055.38
2022-08-26T09:51:53.662Z,99046.75
2022-08-26T09:56:21.750Z,99052.56
2022-08-26T10:00:30.291Z,99059.91
2022-08-26T10:04:38.701Z,99045.81
2022-08-26T10:08:47.648Z,99052.00
2022-08-26T10:13:17.806Z,99045.72
2022-08-26T10:17:32.183Z,99040.63
2022-08-26T10:21:53.071Z,99044.41
2022-08-26T10:26:08.714Z,99041.22
2022-08-26T10:30:15.538Z,99039.41
2022-08-26T10:34:24.509Z,99040.09
2022-08-26T10:38:32.330Z,99037.31
2022-08-26T10:42:40.632Z,99038.34
2022-08-26T10:46:47.493Z,99031.69
2022-08-26T10:50:49.938Z,99030.97
2022-08-26T10:55:23.981Z,99031.09
2022-08-26T10:59:49.117Z,99022.97
2022-08-26T11:04:26.770Z,99021.03
2022-08-26T11:08:29.589Z,99017.38
2022-08-26T11:12:37.347Z,99017.25
2022-08-26T11:16:43.327Z,99017.38
2022-08-26T11:20:47.140Z,99011.06
2022-08-26T11:24:54.947Z,99020.78
2022-08-26T11:29:04.731Z,99013.59
2022-08-26T11:33:44.211Z,99021.34
2022-08-26T11:37:50.886Z,99022.63
2022-08-26T11:42:00.136Z,99038.09
2022-08-26T11:46:14.770Z,99035.19
2022-08-26T11:50:26.079Z,99041.88
2022-08-26T11:54:35.147Z,99031.94
2022-08-26T11:58:43.545Z,99027.31
2022-08-26T12:02:45.001Z,99033.63
2022-08-26T12:06:57.769Z,99026.25
2022-08-26T12:11:09.424Z,99027.50
2022-08-26T12:15:24.094Z,99026.53
2022-08-26T12:19:33.309Z,99026.38
2022-08-26T12:23:34.942Z,99016.16
2022-08-26T12:27:41.505Z,99019.53
2022-08-26T12:31:50.869Z,99022.06
2022-08-26T12:35:56.393Z,99019.75
2022-08-26T12:40:50.825Z,99025.88
2022-08-26T12:45:07.009Z,99030.75
2022-08-26T12:49:08.509Z,99033.56
2022-08-26T12:53:09.871Z,99023.63
2022-08-26T12:57:19.857Z,99009.06
2022-08-26T13:01:22.596Z,99014.31
2022-08-26T13:05:42.367Z,99004.09
2022-08-26T13:09:43.969Z,99003.97
2022-08-26T13:13:50.356Z,99013.13
2022-08-26T13:17:59.061Z,99007.63
2022-08-26T13:22:06.890Z,99002.50
2022-08-26T13:26:08.661Z,99010.91
2022-08-26T13:30:12.179Z,99004.09
2022-08-26T13:34:20.394Z,99004.78
2022-08-26T13:38:33.363Z,99008.22
2022-08-26T13:42:35.675Z,99002.66
2022-08-26T13:46:37.536Z,99005.53
2022-08-26T13:50:45.957Z,99012.81
2022-08-26T13:54:47.394Z,98999.25
2022-08-26T13:58:49.771Z,98994.53
2022-08-26T14:02:51.286Z,99001.75
2022-08-26T14:06:59.816Z,98998.91
2022-08-26T14:11:01.210Z,99003.00
2022-08-26T14:15:02.813Z,98998.63
2022-08-26T14:19:13.822Z,98996.09
2022-08-26T14:23:17.245Z,99004.19
2022-08-26T14:27:18.755Z,98998.03
2022-08-26T14:31:20.566Z,99010.00
2022-08-26T14:35:31.877Z,99014.00
2022-08-26T14:39:34.008Z,99005.66
2022-08-26T14:43:36.693Z,98999.84
2022-08-26T14:47:38.157Z,99001.25
2022-08-26T14:51:43.513Z,98995.28
2022-08-26T14:55:45.664Z,98989.75
2022-08-26T14:59:50.548Z,98986.19
2022-08-26T15:03:53.249Z,98992.47
2022-08-26T15:08:00.934Z,98999.19
2022-08-26T15:12:03.325Z,98998.34
2022-08-26T15:16:05.949Z,98991.56
2022-08-26T15:20:10.286Z,98984.59
2022-08-26T15:24:20.146Z,98981.22
2022-08-26T15:28:28.123Z,98977.44
2022-08-26T15:32:30.629Z,98985.84
2022-08-26T15:36:33.405Z,99000.53
2022-08-26T15:40:35.517Z,99023.94
2022-08-26T15:44:37.206Z,99040.25
2022-08-26T15:48:39.074Z,99024.97
2022-08-26T15:52:40.482Z,99027.28
2022-08-26T15:56:43.487Z,99033.28
2022-08-26T16:00:52.000Z,99009.69
2022-08-26T16:04:53.473Z,99020.13
2022-08-26T16:09:03.562Z,99012.03
2022-08-26T16:13:05.442Z,99005.34
2022-08-26T16:17:13.985Z,99006.19
2022-08-26T16:21:18.025Z,99013.44
2022-08-26T16:25:20.178Z,99036.50
2022-08-26T16:29:21.577Z,99043.41
2022-08-26T16:33:29.450Z,99034.16
2022-08-26T16:37:31.236Z,99028.75
2022-08-26T16:41:40.136Z,99042.03
2022-08-26T16:45:41.737Z,99020.88
2022-08-26T16:49:44.093Z,99028.00
2022-08-26T16:53:45.917Z,99033.69
2022-08-26T16:57:47.919Z,99038.47
2022-08-26T17:01:55.957Z,99028.28
2022-08-26T17:05:57.379Z,99034.94
2022-08-26T17:09:58.870Z,99028.59
2022-08-26T17:14:00.384Z,99021.34
2022-08-26T17:18:01.878Z,99028.22
2022-08-26T17:22:05.682Z,99027.13
2022-08-26T17:26:08.260Z,99017.09
2022-08-26T17:30:10.414Z,99022.81
2022-08-26T17:34:18.074Z,99011.22
2022-08-26T17:38:21.150Z,99012.00
2022-08-26T17:42:22.746Z,99015.44
2022-08-26T17:46:37.776Z,99009.91
2022-08-26T17:50:42.402Z,99021.84
2022-08-26T17:54:44.268Z,99033.78
2022-08-26T17:58:50.974Z,99034.31
2022-08-26T18:02:54.854Z,99035.38
2022-08-26T18:07:06.038Z,99028.88
2022-08-26T18:11:13.407Z,99030.16
2022-08-26T18:15:20.044Z,99037.47
2022-08-26T18:19:21.517Z,99027.34
2022-08-26T18:23:25.341Z,99034.34
2022-08-26T18:27:28.639Z,99037.56
2022-08-26T18:31:35.080Z,99042.75
2022-08-26T18:36:09.084Z,99035.31
2022-08-26T18:40:44.906Z,99044.16
2022-08-26T18:44:52.285Z,99045.66
2022-08-26T18:53:37.475Z,99064.22
2022-08-26T18:58:17.129Z,99073.47
2022-08-26T19:02:51.742Z,99078.22
2022-08-26T19:07:02.270Z,99079.44
2022-08-26T19:15:48.870Z,99080.88
2022-08-26T19:20:06.563Z,99084.63
2022-08-26T19:24:59.081Z,99092.72
2022-08-26T19:33:24.007Z,99104.50
2022-08-26T19:42:41.924Z,99121.03
2022-08-26T19:51:43.402Z,99122.41
2022-08-26T19:55:45.450Z,99126.88
2022-08-26T20:04:40.109Z,99121.84
2022-08-26T20:09:07.756Z,99121.09
2022-08-26T20:13:14.225Z,99127.41
2022-08-26T20:17:21.385Z,99125.16
2022-08-26T20:21:47.322Z,99123.31
2022-08-26T20:31:13.970Z,99126.66
2022-08-26T20:35:25.497Z,99133.44
2022-08-26T20:39:41.597Z,99138.34
2022-08-26T20:44:01.061Z,99144.06
2022-08-26T20:48:03.040Z,99149.03
2022-08-26T20:52:11.157Z,99147.88
2022-08-26T20:56:14.832Z,99151.06
2022-08-26T21:00:22.545Z,99156.81
2022-08-26T21:04:36.183Z,99153.22
2022-08-26T21:08:42.113Z,99153.75
2022-08-26T21:12:52.073Z,99154.78
2022-08-26T21:17:00.151Z,99160.56
2022-08-26T21:21:06.749Z,99151.00
2022-08-26T21:25:08.989Z,99153.72
2022-08-26T21:29:10.769Z,99149.69
2022-08-26T21:33:12.207Z,99148.03
2022-08-26T21:37:15.402Z,99142.88
2022-08-26T21:41:21.929Z,99143.75
2022-08-26T21:45:23.418Z,99144.66
2022-08-26T21:49:25.825Z,99146.59
2022-08-26T21:53:27.287Z,99146.03
2022-08-26T21:57:29.668Z,99155.00
2022-08-26T22:01:32.467Z,99151.56
2022-08-26T22:05:34.028Z,99161.13
2022-08-26T22:09:35.606Z,99157.66
2022-08-26T22:13:42.750Z,99153.50
2022-08-26T22:17:44.353Z,99154.34
2022-08-26T22:21:46.478Z,99158.63
2022-08-26T22:25:48.529Z,99157.84
2022-08-26T22:29:50.370Z,99165.88
2022-08-26T22:33:51.836Z,99172.38
2022-08-26T22:37:53.337Z,99169.94
2022-08-26T22:41:58.617Z,99170.94
2022-08-26T22:46:00.136Z,99169.31
2022-08-26T22:50:01.914Z,99176.28
2022-08-26T22:54:03.694Z,99171.31
2022-08-26T22:58:12.401Z,99177.50
2022-08-26T23:02:14.356Z,99178.66
2022-08-26T23:06:15.805Z,99176.09
2022-08-26T23:10:17.226Z,99176.38
2022-08-26T23:14:18.806Z,99168.63
2022-08-26T23:18:27.189Z,99177.66
2022-08-26T23:22:29.467Z,99173.47
2022-08-26T23:26:31.908Z,99181.72
2022-08-26T23:30:34.526Z,99176.69
2022-08-26T23:34:54.653Z,99178.44
2022-08-26T23:38:56.109Z,99169.53
2022-08-26T23:42:59.864Z,99166.13
2022-08-26T23:47:01.724Z,99163.53
2022-08-26T23:51:28.452Z,99159.13
2022-08-26T23:55:31.417Z,99156.56
2022-08-26T23:59:34.249Z,99161.03
